Time;durP1;ratioP1;P1;durP2;ratioP2;P2;SDS_P1;SDS_P2;PMS_P1;PMS_P2;Temp;Humidity;BMP_temperature;BMP_pressure;BME280_temperature;BME280_humidity;BME280_pressure;Samples;Min_cycle;Max_cycle;Signal;HPM_P1;HPM_P2
2021/07/16 00:02:09;;;;;;;3.47;2.80;;;;;;;;;;5092529;28;20023;-59
2021/07/16 00:04:34;;;;;;;3.20;2.58;;;;;;;;;;5092675;28;20031;-59
2021/07/16 00:06:59;;;;;;;2.75;2.47;;;;;;;;;;5089813;28;20020;-59
2021/07/16 00:09:24;;;;;;;3.35;2.38;;;;;;;;;;5092807;28;20024;-59
2021/07/16 00:11:50;;;;;;;3.47;2.83;;;;;;;;;;5092432;28;20031;-58
2021/07/16 00:14:15;;;;;;;3.55;2.85;;;;;;;;;;5091999;28;20027;-59
2021/07/16 00:16:40;;;;;;;3.42;3.15;;;;;;;;;;5090135;28;20489;-59
2021/07/16 00:19:06;;;;;;;3.60;3.25;;;;;;;;;;5092407;28;20028;-59
2021/07/16 00:21:31;;;;;;;5.80;3.38;;;;;;;;;;5092863;28;20418;-59
2021/07/16 00:23:57;;;;;;;3.72;3.42;;;;;;;;;;5091705;28;20016;-60
2021/07/16 00:26:22;;;;;;;7.22;4.18;;;;;;;;;;5089520;28;20046;-58
2021/07/16 00:28:47;;;;;;;5.40;3.38;;;;;;;;;;5090591;28;20383;-59
2021/07/16 00:31:13;;;;;;;5.40;3.45;;;;;;;;;;5092421;28;20023;-59
2021/07/16 00:33:38;;;;;;;5.07;3.80;;;;;;;;;;5091986;28;20035;-59
2021/07/16 00:36:04;;;;;;;4.68;3.47;;;;;;;;;;5089506;28;20485;-59
2021/07/16 00:38:29;;;;;;;4.43;3.75;;;;;;;;;;5091897;28;20099;-59
2021/07/16 00:40:54;;;;;;;4.32;3.40;;;;;;;;;;5091220;28;20089;-59
2021/07/16 00:43:19;;;;;;;4.03;3.65;;;;;;;;;;5083990;28;20031;-59
2021/07/16 00:45:45;;;;;;;4.45;3.65;;;;;;;;;;5076036;28;20063;-59
2021/07/16 00:48:10;;;;;;;4.95;3.90;;;;;;;;;;5072176;28;20013;-58
2021/07/16 00:50:37;;;;;;;4.57;4.15;;;;;;;;;;5088748;28;20016;-59
2021/07/16 00:53:03;;;;;;;5.55;3.97;;;;;;;;;;5090801;28;20486;-59
2021/07/16 00:55:30;;;;;;;5.03;3.70;;;;;;;;;;5090623;28;20099;-58
2021/07/16 00:57:55;;;;;;;4.82;4.07;;;;;;;;;;5092164;28;20051;-58
2021/07/16 01:00:20;;;;;;;4.20;3.35;;;;;;;;;;5091330;28;20055;-58
2021/07/16 01:02:46;;;;;;;4.53;4.13;;;;;;;;;;5092487;28;20489;-59
2021/07/16 01:05:13;;;;;;;4.35;4.05;;;;;;;;;;5085003;28;20693;-58
2021/07/16 01:07:38;;;;;;;4.70;4.28;;;;;;;;;;5092156;28;20491;-59
2021/07/16 01:10:04;;;;;;;6.93;4.28;;;;;;;;;;5086393;28;20016;-59
2021/07/16 01:12:30;;;;;;;6.07;4.15;;;;;;;;;;5087848;28;20016;-59
2021/07/16 01:14:55;;;;;;;4.50;4.10;;;;;;;;;;5088873;28;20023;-59
2021/07/16 01:17:21;;;;;;;4.65;4.25;;;;;;;;;;5091814;28;20074;-58
2021/07/16 01:19:58;;;;;;;5.60;4.32;;;;;;;;;;5092053;28;20103;-59
2021/07/16 01:22:28;;;;;;;6.05;4.32;;;;;;;;;;5073603;28;20035;-59
2021/07/16 01:24:53;;;;;;;4.72;4.32;;;;;;;;;;5090315;28;20020;-59
2021/07/16 01:27:19;;;;;;;5.03;4.53;;;;;;;;;;5096558;28;20402;-59
2021/07/16 01:29:45;;;;;;;4.72;4.32;;;;;;;;;;5096186;28;20102;-59
2021/07/16 01:32:10;;;;;;;6.28;4.82;;;;;;;;;;5096016;28;20099;-59
2021/07/16 01:34:36;;;;;;;4.43;3.85;;;;;;;;;;5092447;28;20442;-59
2021/07/16 01:37:01;;;;;;;5.78;3.88;;;;;;;;;;5096241;28;20039;-59
2021/07/16 01:39:26;;;;;;;4.43;3.42;;;;;;;;;;5093719;28;20020;-59
2021/07/16 01:41:52;;;;;;;4.25;3.55;;;;;;;;;;5093653;28;20433;-59
2021/07/16 01:44:17;;;;;;;3.42;3.13;;;;;;;;;;5092631;28;20081;-59
2021/07/16 01:46:42;;;;;;;5.93;3.38;;;;;;;;;;5095290;28;20119;-60
2021/07/16 01:49:07;;;;;;;4.63;3.65;;;;;;;;;;5095391;28;20062;-59
2021/07/16 01:51:32;;;;;;;7.20;3.58;;;;;;;;;;5095710;28;20051;-59
2021/07/16 01:53:58;;;;;;;4.00;3.58;;;;;;;;;;5091634;28;20023;-61
2021/07/16 01:56:23;;;;;;;4.15;3.63;;;;;;;;;;5094994;28;20051;-59
2021/07/16 01:58:48;;;;;;;6.88;4.05;;;;;;;;;;5095747;28;20020;-60
2021/07/16 02:01:14;;;;;;;3.92;3.40;;;;;;;;;;5095138;28;20514;-60
2021/07/16 02:03:42;;;;;;;3.38;3.13;;;;;;;;;;5093144;28;20565;-60
2021/07/16 02:06:07;;;;;;;4.53;3.00;;;;;;;;;;5094493;28;20020;-60
2021/07/16 02:08:32;;;;;;;3.47;2.88;;;;;;;;;;5095356;28;20024;-59
2021/07/16 02:10:57;;;;;;;4.47;2.92;;;;;;;;;;5095329;28;20016;-59
2021/07/16 02:13:23;;;;;;;3.65;3.22;;;;;;;;;;5092667;28;20020;-60
2021/07/16 02:15:49;;;;;;;4.78;3.47;;;;;;;;;;5095074;28;20034;-60
2021/07/16 02:18:17;;;;;;;5.55;3.53;;;;;;;;;;5095062;28;20459;-60
2021/07/16 02:20:43;;;;;;;4.05;3.65;;;;;;;;;;5095160;28;20028;-59
2021/07/16 02:23:10;;;;;;;4.45;3.78;;;;;;;;;;5093250;28;20107;-59
2021/07/16 02:25:35;;;;;;;3.95;3.17;;;;;;;;;;5094286;28;20386;-59
2021/07/16 02:28:04;;;;;;;5.53;4.20;;;;;;;;;;5092805;28;20016;-59
2021/07/16 02:30:29;;;;;;;3.88;3.58;;;;;;;;;;5075018;28;20021;-59
2021/07/16 02:32:55;;;;;;;3.80;3.38;;;;;;;;;;5075576;28;20020;-60
2021/07/16 02:35:20;;;;;;;4.72;4.32;;;;;;;;;;5092200;28;20020;-60
2021/07/16 02:37:46;;;;;;;6.65;3.83;;;;;;;;;;5094496;28;20386;-59
2021/07/16 02:40:12;;;;;;;6.20;3.85;;;;;;;;;;5078889;28;20392;-59
2021/07/16 02:42:38;;;;;;;5.05;3.38;;;;;;;;;;5090302;28;20039;-58
2021/07/16 02:45:04;;;;;;;4.32;3.92;;;;;;;;;;5091282;28;20023;-59
2021/07/16 02:47:29;;;;;;;5.63;4.20;;;;;;;;;;5094995;28;20073;-60
2021/07/16 02:49:54;;;;;;;4.63;3.85;;;;;;;;;;5094449;28;20028;-59
2021/07/16 02:52:20;;;;;;;4.88;3.97;;;;;;;;;;5094966;28;20036;-59
2021/07/16 02:54:45;;;;;;;5.43;3.72;;;;;;;;;;5090037;28;20100;-59
2021/07/16 02:57:10;;;;;;;5.15;3.65;;;;;;;;;;5094391;28;20035;-59
2021/07/16 02:59:35;;;;;;;5.25;4.00;;;;;;;;;;5094364;28;20030;-59
2021/07/16 03:02:03;;;;;;;4.00;3.70;;;;;;;;;;5094602;28;20043;-58
2021/07/16 03:04:28;;;;;;;4.55;4.25;;;;;;;;;;5090838;28;20035;-59
2021/07/16 03:06:53;;;;;;;7.00;4.25;;;;;;;;;;5094648;28;20020;-59
2021/07/16 03:09:19;;;;;;;5.60;3.90;;;;;;;;;;5094602;28;20016;-59
2021/07/16 03:11:45;;;;;;;4.85;3.30;;;;;;;;;;5094748;28;20016;-57
2021/07/16 03:14:11;;;;;;;4.63;4.05;;;;;;;;;;5090276;28;20024;-57
2021/07/16 03:16:36;;;;;;;3.92;3.42;;;;;;;;;;5094129;28;20081;-58
2021/07/16 03:19:02;;;;;;;3.70;3.40;;;;;;;;;;5094407;28;20032;-58
2021/07/16 03:21:27;;;;;;;7.05;3.58;;;;;;;;;;5094103;28;20016;-58
2021/07/16 03:23:52;;;;;;;4.68;3.80;;;;;;;;;;5090252;28;20089;-56
2021/07/16 03:26:18;;;;;;;6.60;3.85;;;;;;;;;;5093883;28;20051;-58
2021/07/16 03:28:43;;;;;;;4.40;3.30;;;;;;;;;;5094195;28;20378;-58
2021/07/16 03:31:08;;;;;;;4.32;3.13;;;;;;;;;;5093292;28;20463;-59
2021/07/16 03:33:34;;;;;;;6.10;4.72;;;;;;;;;;5090559;28;20241;-58
2021/07/16 03:35:59;;;;;;;4.63;4.22;;;;;;;;;;5093477;28;20383;-58
2021/07/16 03:38:24;;;;;;;7.03;4.45;;;;;;;;;;5093387;28;20028;-58
2021/07/16 03:40:52;;;;;;;5.25;4.32;;;;;;;;;;5093959;28;20027;-59
2021/07/16 03:43:18;;;;;;;5.78;5.13;;;;;;;;;;5090038;28;20027;-60
2021/07/16 03:45:43;;;;;;;5.10;4.45;;;;;;;;;;5093241;28;20406;-58
2021/07/16 03:48:08;;;;;;;4.70;3.75;;;;;;;;;;5092998;28;20047;-58
2021/07/16 03:50:33;;;;;;;3.83;3.50;;;;;;;;;;5092622;28;20020;-58
2021/07/16 03:52:59;;;;;;;3.55;3.25;;;;;;;;;;5083564;28;20042;-59
2021/07/16 03:55:24;;;;;;;4.85;3.13;;;;;;;;;;5091316;28;20059;-58
2021/07/16 03:57:50;;;;;;;4.28;3.40;;;;;;;;;;5093672;28;20020;-59
2021/07/16 04:00:17;;;;;;;5.65;3.67;;;;;;;;;;5092863;28;20478;-58
2021/07/16 04:02:42;;;;;;;10.05;4.20;;;;;;;;;;5093701;28;20024;-59
2021/07/16 04:05:08;;;;;;;6.95;4.30;;;;;;;;;;5089641;28;20448;-59
2021/07/16 04:07:34;;;;;;;5.80;3.70;;;;;;;;;;5093217;28;20035;-59
2021/07/16 04:10:00;;;;;;;4.10;3.70;;;;;;;;;;5093237;28;20436;-59
2021/07/16 04:12:25;;;;;;;4.57;3.78;;;;;;;;;;5092677;28;20052;-58
2021/07/16 04:14:51;;;;;;;4.88;4.00;;;;;;;;;;5089813;28;20085;-59
2021/07/16 04:17:18;;;;;;;6.72;4.18;;;;;;;;;;5092925;28;20103;-58
2021/07/16 04:19:45;;;;;;;4.53;3.90;;;;;;;;;;5093243;28;20042;-58
2021/07/16 04:22:10;;;;;;;5.72;3.83;;;;;;;;;;5092287;28;20015;-59
2021/07/16 04:24:36;;;;;;;5.07;3.60;;;;;;;;;;5089410;28;20356;-59
2021/07/16 04:27:02;;;;;;;8.07;4.15;;;;;;;;;;5092628;28;20074;-59
2021/07/16 04:29:28;;;;;;;8.07;3.65;;;;;;;;;;5092899;28;20069;-59
2021/07/16 04:31:53;;;;;;;8.50;3.70;;;;;;;;;;5091769;28;20020;-58
2021/07/16 04:34:18;;;;;;;9.63;3.90;;;;;;;;;;5088412;28;20486;-58
2021/07/16 04:36:45;;;;;;;5.97;4.13;;;;;;;;;;5091115;28;20027;-58
2021/07/16 04:39:10;;;;;;;7.05;4.15;;;;;;;;;;5087485;28;20070;-58
2021/07/16 04:41:35;;;;;;;6.22;4.15;;;;;;;;;;5085814;28;20024;-59
2021/07/16 04:44:00;;;;;;;7.47;4.30;;;;;;;;;;5089474;28;20024;-59
2021/07/16 04:46:26;;;;;;;6.50;3.72;;;;;;;;;;5091957;28;20338;-60
2021/07/16 04:48:57;;;;;;;9.25;4.43;;;;;;;;;;5092606;28;20023;-58
2021/07/16 04:51:23;;;;;;;6.95;3.65;;;;;;;;;;5090681;28;20027;-57
2021/07/16 04:53:50;;;;;;;6.40;3.42;;;;;;;;;;5089235;28;20067;-58
2021/07/16 04:56:16;;;;;;;13.65;4.03;;;;;;;;;;5092146;28;20039;-59
2021/07/16 04:58:41;;;;;;;5.03;2.53;;;;;;;;;;5091230;28;20020;-58
2021/07/16 05:01:06;;;;;;;3.40;3.10;;;;;;;;;;5091488;28;20028;-58
2021/07/16 05:03:31;;;;;;;4.00;3.08;;;;;;;;;;5088926;28;20465;-58
2021/07/16 05:05:56;;;;;;;4.97;2.75;;;;;;;;;;5090925;28;20536;-58
2021/07/16 05:08:21;;;;;;;4.55;2.97;;;;;;;;;;5092195;28;20024;-59
2021/07/16 05:10:47;;;;;;;4.00;2.58;;;;;;;;;;5092519;28;20023;-59
2021/07/16 05:13:12;;;;;;;4.63;2.70;;;;;;;;;;5088281;28;20055;-60
2021/07/16 05:15:37;;;;;;;5.63;2.20;;;;;;;;;;5089407;28;20101;-60
2021/07/16 05:18:03;;;;;;;2.80;2.03;;;;;;;;;;5087382;28;20527;-59
2021/07/16 05:20:28;;;;;;;8.45;2.60;;;;;;;;;;5090571;28;20043;-60
2021/07/16 05:22:55;;;;;;;3.75;2.50;;;;;;;;;;5090575;28;20028;-60
2021/07/16 05:25:22;;;;;;;5.57;2.00;;;;;;;;;;5089154;28;20115;-59
2021/07/16 05:27:48;;;;;;;3.13;2.00;;;;;;;;;;5090160;28;20020;-59
2021/07/16 05:30:13;;;;;;;3.45;2.10;;;;;;;;;;5090101;28;20383;-60
2021/07/16 05:32:39;;;;;;;3.85;1.67;;;;;;;;;;5091102;28;20016;-60
2021/07/16 05:35:04;;;;;;;2.65;1.88;;;;;;;;;;5082831;28;20035;-59
2021/07/16 05:37:29;;;;;;;2.47;1.25;;;;;;;;;;5090778;28;20023;-59
2021/07/16 05:39:56;;;;;;;3.60;1.58;;;;;;;;;;5089077;28;20031;-61
2021/07/16 05:42:22;;;;;;;4.95;1.65;;;;;;;;;;5090279;28;20023;-60
2021/07/16 05:44:47;;;;;;;3.65;1.45;;;;;;;;;;5088420;28;20020;-59
2021/07/16 05:47:12;;;;;;;2.38;1.10;;;;;;;;;;5089405;28;20379;-59
2021/07/16 05:49:37;;;;;;;2.67;1.40;;;;;;;;;;5090751;28;20391;-59
2021/07/16 05:52:03;;;;;;;3.13;1.40;;;;;;;;;;5082619;28;20075;-59
2021/07/16 05:54:28;;;;;;;3.13;1.30;;;;;;;;;;5073599;28;20103;-59
2021/07/16 05:56:53;;;;;;;1.23;1.13;;;;;;;;;;5090236;28;20020;-59
2021/07/16 05:59:20;;;;;;;1.98;1.25;;;;;;;;;;5090657;28;20035;-59
2021/07/16 06:01:45;;;;;;;3.20;1.13;;;;;;;;;;5090906;28;20073;-59
2021/07/16 06:04:10;;;;;;;2.15;1.02;;;;;;;;;;5086883;28;20024;-60
2021/07/16 06:06:36;;;;;;;1.60;1.00;;;;;;;;;;5090953;28;20459;-59
2021/07/16 06:09:02;;;;;;;1.33;1.20;;;;;;;;;;5086990;28;20040;-60
2021/07/16 06:11:28;;;;;;;2.05;1.10;;;;;;;;;;5085707;28;20063;-59
2021/07/16 06:13:53;;;;;;;1.20;1.00;;;;;;;;;;5090728;28;20520;-58
2021/07/16 06:16:18;;;;;;;2.75;1.70;;;;;;;;;;5086547;28;20278;-59
2021/07/16 06:18:43;;;;;;;1.92;1.60;;;;;;;;;;5094342;28;20032;-58
2021/07/16 06:21:09;;;;;;;2.90;1.90;;;;;;;;;;5092261;28;20459;-58
2021/07/16 06:23:39;;;;;;;2.20;1.50;;;;;;;;;;5091819;28;20114;-59
2021/07/16 06:26:05;;;;;;;2.63;1.67;;;;;;;;;;5094532;28;20052;-59
2021/07/16 06:28:30;;;;;;;2.85;1.92;;;;;;;;;;5091421;28;20054;-59
2021/07/16 06:30:55;;;;;;;3.42;1.45;;;;;;;;;;5094388;28;20051;-59
2021/07/16 06:33:20;;;;;;;1.58;1.35;;;;;;;;;;5090141;28;20062;-59
2021/07/16 06:35:46;;;;;;;4.15;1.60;;;;;;;;;;5094323;28;20024;-59
2021/07/16 06:38:12;;;;;;;3.33;1.55;;;;;;;;;;5092130;28;20448;-59
2021/07/16 06:40:37;;;;;;;1.10;1.10;;;;;;;;;;5093471;28;20020;-59
2021/07/16 06:43:08;;;;;;;2.00;1.50;;;;;;;;;;5092731;28;20095;-59
2021/07/16 06:45:33;;;;;;;1.95;1.42;;;;;;;;;;5090346;28;20278;-60
2021/07/16 06:47:59;;;;;;;2.47;1.15;;;;;;;;;;5091860;28;20379;-60
2021/07/16 06:50:24;;;;;;;2.40;1.48;;;;;;;;;;5093195;28;20463;-60
2021/07/16 06:52:49;;;;;;;2.55;1.35;;;;;;;;;;5085878;28;20032;-59
2021/07/16 06:55:14;;;;;;;1.83;1.30;;;;;;;;;;5088654;28;20028;-59
2021/07/16 06:57:41;;;;;;;1.65;1.27;;;;;;;;;;5094074;28;20024;-60
2021/07/16 07:00:07;;;;;;;1.88;1.13;;;;;;;;;;5093375;28;20383;-59
2021/07/16 07:02:32;;;;;;;1.48;1.38;;;;;;;;;;5093648;28;20028;-59
2021/07/16 07:04:58;;;;;;;2.00;1.25;;;;;;;;;;5091237;28;20035;-59
2021/07/16 07:07:23;;;;;;;2.63;1.63;;;;;;;;;;5094136;28;20016;-58
2021/07/16 07:09:49;;;;;;;2.57;1.43;;;;;;;;;;5092135;28;20387;-58
2021/07/16 07:12:14;;;;;;;2.25;1.23;;;;;;;;;;5092696;28;20293;-59
2021/07/16 07:14:40;;;;;;;1.83;1.20;;;;;;;;;;5090261;28;20491;-60
2021/07/16 07:17:06;;;;;;;2.20;1.40;;;;;;;;;;5093526;28;20028;-59
2021/07/16 07:19:31;;;;;;;2.30;1.40;;;;;;;;;;5094149;28;20020;-59
2021/07/16 07:21:56;;;;;;;1.37;1.27;;;;;;;;;;5092255;28;20099;-60
2021/07/16 07:24:21;;;;;;;1.70;1.38;;;;;;;;;;5090449;28;20355;-61
2021/07/16 07:26:46;;;;;;;2.70;1.80;;;;;;;;;;5092578;28;20031;-61
2021/07/16 07:29:12;;;;;;;2.87;1.60;;;;;;;;;;5091943;28;20467;-60
2021/07/16 07:31:37;;;;;;;3.60;1.65;;;;;;;;;;5091133;28;20369;-61
2021/07/16 07:34:02;;;;;;;1.75;1.33;;;;;;;;;;5090332;28;20383;-60
2021/07/16 07:36:28;;;;;;;5.40;1.92;;;;;;;;;;5093477;28;20030;-60
2021/07/16 07:38:53;;;;;;;3.40;1.88;;;;;;;;;;5093752;28;20020;-61
2021/07/16 07:41:18;;;;;;;1.90;1.67;;;;;;;;;;5093283;28;20016;-59
2021/07/16 07:43:44;;;;;;;2.97;1.70;;;;;;;;;;5090275;28;20027;-60
2021/07/16 07:46:09;;;;;;;2.05;1.60;;;;;;;;;;5091317;28;20024;-60
2021/07/16 07:48:34;;;;;;;2.30;1.58;;;;;;;;;;5091924;28;20035;-60
2021/07/16 07:50:59;;;;;;;3.20;1.55;;;;;;;;;;5091465;28;20015;-60
2021/07/16 07:53:25;;;;;;;1.95;1.83;;;;;;;;;;5088137;28;20048;-60
2021/07/16 07:55:50;;;;;;;2.15;1.80;;;;;;;;;;5090855;28;20468;-60
2021/07/16 07:58:16;;;;;;;2.67;1.90;;;;;;;;;;5093147;28;20455;-60
2021/07/16 08:00:41;;;;;;;2.63;1.77;;;;;;;;;;5093254;28;20020;-60
2021/07/16 08:03:06;;;;;;;1.73;1.63;;;;;;;;;;5091653;28;20246;-60
2021/07/16 08:05:31;;;;;;;1.60;1.50;;;;;;;;;;5092376;28;20432;-60
2021/07/16 08:07:56;;;;;;;2.90;1.77;;;;;;;;;;5092939;28;20257;-61
2021/07/16 08:10:22;;;;;;;1.90;1.80;;;;;;;;;;5093273;28;20016;-59
2021/07/16 08:12:48;;;;;;;2.50;2.30;;;;;;;;;;5091271;28;20266;-59
2021/07/16 08:15:14;;;;;;;1.80;1.70;;;;;;;;;;5088930;28;20024;-59
2021/07/16 08:17:39;;;;;;;1.88;1.77;;;;;;;;;;5093113;28;20020;-58
2021/07/16 08:20:08;;;;;;;6.03;3.20;;;;;;;;;;5092212;28;20039;-59
2021/07/16 08:22:33;;;;;;;3.08;1.80;;;;;;;;;;5092051;28;20048;-58
2021/07/16 08:24:58;;;;;;;2.45;1.80;;;;;;;;;;5087155;28;20059;-58
2021/07/16 08:27:23;;;;;;;2.10;1.93;;;;;;;;;;5091022;28;20181;-58
2021/07/16 08:29:48;;;;;;;3.40;2.57;;;;;;;;;;5092455;28;20662;-58
2021/07/16 08:32:13;;;;;;;4.30;2.53;;;;;;;;;;5090592;28;20326;-59
2021/07/16 08:34:39;;;;;;;2.93;2.73;;;;;;;;;;5072891;28;20255;-59
2021/07/16 08:37:04;;;;;;;3.03;2.28;;;;;;;;;;5076481;28;20258;-59
2021/07/16 08:39:29;;;;;;;2.83;1.50;;;;;;;;;;5092051;28;20483;-59
2021/07/16 08:41:54;;;;;;;4.10;2.13;;;;;;;;;;5090716;28;20073;-59
2021/07/16 08:44:20;;;;;;;4.53;2.10;;;;;;;;;;5076895;28;20332;-59
2021/07/16 08:46:46;;;;;;;2.00;1.80;;;;;;;;;;5074417;28;21263;-60
2021/07/16 08:49:12;;;;;;;1.92;1.70;;;;;;;;;;5092030;28;20053;-59
2021/07/16 08:51:38;;;;;;;3.35;3.05;;;;;;;;;;5087920;28;20440;-59
2021/07/16 08:54:03;;;;;;;2.50;2.30;;;;;;;;;;5090082;28;20056;-59
2021/07/16 08:56:35;;;;;;;4.00;2.60;;;;;;;;;;5092422;28;20048;-60
2021/07/16 08:59:01;;;;;;;2.03;1.67;;;;;;;;;;5084488;28;20024;-60
2021/07/16 09:01:26;;;;;;;3.72;2.17;;;;;;;;;;5088156;28;20023;-60
2021/07/16 09:03:55;;;;;;;2.03;1.92;;;;;;;;;;5089937;28;20198;-59
2021/07/16 09:06:40;;;;;;;3.55;1.95;;;;;;;;;;5091712;28;20081;-58
2021/07/16 09:09:06;;;;;;;2.17;1.92;;;;;;;;;;5087956;28;20126;-60
2021/07/16 09:11:31;;;;;;;2.47;1.80;;;;;;;;;;5092649;28;20039;-59
2021/07/16 09:13:56;;;;;;;2.40;1.60;;;;;;;;;;5088904;28;20016;-59
2021/07/16 09:16:22;;;;;;;1.60;1.17;;;;;;;;;;5092397;28;20030;-60
2021/07/16 09:18:56;;;;;;;1.33;1.23;;;;;;;;;;5083486;28;20266;-60
2021/07/16 09:21:21;;;;;;;1.23;0.82;;;;;;;;;;5091999;28;20020;-59
2021/07/16 09:23:46;;;;;;;1.63;1.10;;;;;;;;;;5089283;28;20430;-61
2021/07/16 09:26:13;;;;;;;2.35;1.00;;;;;;;;;;5083063;28;20060;-61
2021/07/16 09:28:41;;;;;;;1.80;0.95;;;;;;;;;;5089666;28;20023;-60
2021/07/16 09:31:08;;;;;;;1.30;1.20;;;;;;;;;;5086038;28;20044;-59
2021/07/16 09:33:41;;;;;;;1.48;0.95;;;;;;;;;;5086489;28;20016;-59
2021/07/16 09:36:06;;;;;;;1.65;1.00;;;;;;;;;;5090058;28;20074;-59
2021/07/16 09:38:31;;;;;;;2.90;0.87;;;;;;;;;;5091721;28;20020;-60
2021/07/16 09:41:04;;;;;;;1.23;0.90;;;;;;;;;;5091423;28;20274;-60
2021/07/16 09:43:30;;;;;;;1.30;0.93;;;;;;;;;;5089385;28;20281;-60
2021/07/16 09:46:02;;;;;;;0.90;0.90;;;;;;;;;;5093191;28;20137;-60
2021/07/16 09:48:37;;;;;;;2.42;1.13;;;;;;;;;;5094888;28;20011;-60
2021/07/16 09:51:12;;;;;;;2.10;1.13;;;;;;;;;;5094239;28;20023;-59
2021/07/16 09:53:41;;;;;;;4.20;1.50;;;;;;;;;;5092531;28;20122;-60
2021/07/16 09:56:15;;;;;;;1.67;1.55;;;;;;;;;;5095718;28;20024;-60
2021/07/16 09:58:40;;;;;;;2.25;1.70;;;;;;;;;;5093563;28;20051;-60
2021/07/16 10:01:05;;;;;;;2.97;1.60;;;;;;;;;;5095259;28;20482;-60
2021/07/16 10:03:32;;;;;;;3.20;1.50;;;;;;;;;;5092728;28;20111;-59
2021/07/16 10:05:57;;;;;;;3.47;1.20;;;;;;;;;;5095071;28;20020;-60
2021/07/16 10:08:23;;;;;;;2.53;1.50;;;;;;;;;;5094147;28;20024;-59
2021/07/16 10:10:49;;;;;;;4.60;1.70;;;;;;;;;;5085333;28;20074;-60
2021/07/16 10:13:14;;;;;;;2.15;2.03;;;;;;;;;;5093363;28;20016;-59
2021/07/16 10:15:44;;;;;;;3.60;2.55;;;;;;;;;;5095325;28;20389;-59
2021/07/16 10:18:09;;;;;;;4.03;3.63;;;;;;;;;;5094444;28;20036;-59
2021/07/16 10:20:34;;;;;;;5.40;4.20;;;;;;;;;;5092829;28;20482;-59
2021/07/16 10:23:00;;;;;;;6.32;4.20;;;;;;;;;;5094129;28;20024;-59
2021/07/16 10:25:26;;;;;;;7.38;5.63;;;;;;;;;;5093148;28;20032;-59
2021/07/16 10:27:51;;;;;;;8.75;7.32;;;;;;;;;;5089284;28;20020;-59
2021/07/16 10:30:19;;;;;;;7.05;6.35;;;;;;;;;;5093474;28;20024;-60
2021/07/16 10:32:46;;;;;;;9.75;5.93;;;;;;;;;;5094103;28;20479;-60
2021/07/16 10:35:16;;;;;;;7.05;6.45;;;;;;;;;;5092602;28;20027;-59
2021/07/16 10:37:41;;;;;;;5.57;4.88;;;;;;;;;;5094504;28;20080;-59
2021/07/16 10:40:07;;;;;;;8.25;5.63;;;;;;;;;;5094177;28;20463;-59
2021/07/16 10:42:35;;;;;;;5.72;5.22;;;;;;;;;;5093242;28;20016;-59
2021/07/16 10:45:03;;;;;;;7.45;6.75;;;;;;;;;;5078643;28;20475;-60
2021/07/16 10:47:32;;;;;;;6.88;5.80;;;;;;;;;;5094386;28;20016;-60
2021/07/16 10:49:58;;;;;;;7.63;6.82;;;;;;;;;;5093152;28;20020;-60
2021/07/16 10:52:40;;;;;;;8.33;6.27;;;;;;;;;;5092179;28;20509;-58
2021/07/16 10:55:05;;;;;;;6.38;5.78;;;;;;;;;;5091722;28;20334;-60
2021/07/16 10:57:38;;;;;;;5.88;5.38;;;;;;;;;;5090746;28;20012;-65
2021/07/16 11:00:03;;;;;;;6.50;5.28;;;;;;;;;;5094148;28;20095;-63
2021/07/16 11:02:38;;;;;;;5.25;4.53;;;;;;;;;;5094794;28;20090;-62
2021/07/16 11:05:23;;;;;;;4.38;3.97;;;;;;;;;;5091743;28;20333;-57
2021/07/16 11:07:48;;;;;;;5.43;4.88;;;;;;;;;;5094002;28;20101;-63
2021/07/16 11:10:32;;;;;;;4.87;4.47;;;;;;;;;;5092770;28;20051;-62
2021/07/16 11:13:17;;;;;;;4.93;4.10;;;;;;;;;;5089925;28;20016;-62
2021/07/16 11:15:42;;;;;;;5.03;4.30;;;;;;;;;;5081705;28;20139;-63
2021/07/16 11:18:07;;;;;;;5.03;4.20;;;;;;;;;;5091309;28;20099;-63
2021/07/16 11:20:35;;;;;;;6.57;4.93;;;;;;;;;;5093960;28;20266;-62
2021/07/16 11:23:04;;;;;;;5.93;5.40;;;;;;;;;;5092795;28;20012;-62
2021/07/16 11:25:29;;;;;;;5.47;4.97;;;;;;;;;;5082029;28;20016;-61
2021/07/16 11:27:55;;;;;;;7.20;6.50;;;;;;;;;;5085722;28;20018;-60
2021/07/16 11:30:21;;;;;;;7.72;4.60;;;;;;;;;;5092866;28;20379;-61
2021/07/16 11:32:46;;;;;;;5.28;4.78;;;;;;;;;;5093256;28;20024;-61
2021/07/16 11:35:13;;;;;;;6.45;5.40;;;;;;;;;;5090356;28;20012;-61
2021/07/16 11:37:47;;;;;;;7.50;4.88;;;;;;;;;;5093712;28;20012;-61
2021/07/16 11:40:19;;;;;;;3.63;3.33;;;;;;;;;;5093274;28;20024;-60
2021/07/16 11:42:49;;;;;;;6.13;4.35;;;;;;;;;;5093453;28;20110;-60
2021/07/16 11:45:19;;;;;;;3.83;3.53;;;;;;;;;;5090603;28;20027;-60
2021/07/16 11:47:44;;;;;;;6.00;4.20;;;;;;;;;;5093398;28;20024;-61
2021/07/16 11:50:10;;;;;;;6.97;5.20;;;;;;;;;;5091170;28;20019;-60
2021/07/16 11:52:36;;;;;;;4.90;4.50;;;;;;;;;;5092275;28;20052;-62
2021/07/16 11:55:05;;;;;;;4.32;3.92;;;;;;;;;;5089295;28;20036;-61
2021/07/16 11:57:30;;;;;;;4.50;3.85;;;;;;;;;;5088558;28;20497;-62
2021/07/16 11:59:55;;;;;;;4.57;3.70;;;;;;;;;;5078500;28;20066;-62
2021/07/16 12:02:21;;;;;;;3.83;3.00;;;;;;;;;;5073775;28;20094;-62
2021/07/16 12:04:47;;;;;;;3.55;3.22;;;;;;;;;;5070172;28;20506;-62
2021/07/16 12:07:13;;;;;;;6.15;3.63;;;;;;;;;;5089104;28;20028;-62
2021/07/16 12:09:48;;;;;;;4.28;3.55;;;;;;;;;;5091314;28;20024;-62
2021/07/16 12:12:20;;;;;;;5.35;4.85;;;;;;;;;;5091918;28;20035;-61
2021/07/16 12:14:47;;;;;;;7.05;5.20;;;;;;;;;;5090412;28;20097;-61
2021/07/16 12:17:13;;;;;;;5.95;5.38;;;;;;;;;;5091364;28;20360;-61
2021/07/16 12:19:39;;;;;;;5.53;5.00;;;;;;;;;;5092716;28;20015;-61
2021/07/16 12:22:04;;;;;;;5.00;3.97;;;;;;;;;;5091143;28;20055;-61
2021/07/16 12:24:30;;;;;;;5.07;3.13;;;;;;;;;;5087164;28;20119;-60
2021/07/16 12:27:08;;;;;;;4.75;4.32;;;;;;;;;;5092571;28;20483;-59
2021/07/16 12:29:33;;;;;;;5.32;4.60;;;;;;;;;;5079521;28;20031;-60
2021/07/16 12:31:59;;;;;;;5.80;4.70;;;;;;;;;;5086479;28;20019;-60
2021/07/16 12:34:29;;;;;;;5.10;4.70;;;;;;;;;;5080748;28;20752;-60
2021/07/16 12:37:24;;;;;;;6.85;4.63;;;;;;;;;;5079136;28;20353;-60
2021/07/16 12:40:00;;;;;;;6.70;5.88;;;;;;;;;;5090896;28;20031;-60
2021/07/16 12:42:25;;;;;;;7.00;5.65;;;;;;;;;;5093279;28;20040;-60
2021/07/16 12:45:02;;;;;;;7.43;6.33;;;;;;;;;;5091269;28;20027;-60
2021/07/16 12:47:28;;;;;;;7.57;6.88;;;;;;;;;;5092308;28;20028;-60
2021/07/16 12:50:06;;;;;;;8.20;7.47;;;;;;;;;;5091634;28;20012;-60
2021/07/16 12:52:32;;;;;;;9.40;8.50;;;;;;;;;;5079766;28;20048;-61
2021/07/16 12:55:29;;;;;;;11.23;8.87;;;;;;;;;;5088872;28;20024;-60
2021/07/16 12:57:59;;;;;;;9.25;8.43;;;;;;;;;;5071152;28;20285;-60
2021/07/16 13:00:25;;;;;;;8.50;7.65;;;;;;;;;;5088000;28;20061;-60
2021/07/16 13:02:51;;;;;;;8.70;7.80;;;;;;;;;;5093258;28;20121;-60
2021/07/16 13:05:29;;;;;;;8.85;7.95;;;;;;;;;;5094650;28;20047;-61
2021/07/16 13:08:13;;;;;;;7.80;7.10;;;;;;;;;;5086500;28;20027;-60
2021/07/16 13:10:55;;;;;;;6.75;6.15;;;;;;;;;;5086519;28;20036;-60
2021/07/16 13:13:21;;;;;;;7.85;7.13;;;;;;;;;;5081052;28;20016;-60
2021/07/16 13:16:26;;;;;;;9.05;8.15;;;;;;;;;;5082341;28;20392;-61
2021/07/16 13:18:54;;;;;;;10.68;9.60;;;;;;;;;;5062050;28;20040;-61
2021/07/16 13:21:20;;;;;;;11.30;8.98;;;;;;;;;;5060212;28;20131;-60
2021/07/16 13:23:45;;;;;;;9.77;8.52;;;;;;;;;;5057687;28;20043;-59
2021/07/16 13:26:11;;;;;;;9.60;8.60;;;;;;;;;;5062468;28;20025;-60
2021/07/16 13:28:38;;;;;;;12.98;11.25;;;;;;;;;;5061791;28;20642;-60
2021/07/16 13:31:03;;;;;;;11.45;10.35;;;;;;;;;;5061523;28;20036;-59
2021/07/16 13:33:29;;;;;;;11.68;10.57;;;;;;;;;;5058340;28;20699;-61
2021/07/16 13:35:54;;;;;;;12.05;10.85;;;;;;;;;;5059617;28;20036;-61
2021/07/16 13:38:20;;;;;;;13.25;11.77;;;;;;;;;;5062303;28;20052;-61
2021/07/16 13:40:45;;;;;;;11.30;10.15;;;;;;;;;;5060671;28;20024;-61
2021/07/16 13:43:13;;;;;;;10.55;9.45;;;;;;;;;;5058546;28;20032;-61
2021/07/16 13:45:39;;;;;;;12.95;11.35;;;;;;;;;;5060807;28;20478;-61
2021/07/16 13:48:04;;;;;;;14.63;12.23;;;;;;;;;;5061251;28;20021;-60
2021/07/16 13:50:30;;;;;;;12.20;11.02;;;;;;;;;;5077376;28;20029;-60
2021/07/16 13:52:55;;;;;;;11.43;10.32;;;;;;;;;;5077954;28;20239;-60
2021/07/16 13:55:20;;;;;;;10.23;9.20;;;;;;;;;;5077767;28;20096;-61
2021/07/16 13:57:45;;;;;;;9.60;8.57;;;;;;;;;;5080244;28;20020;-61
2021/07/16 14:00:11;;;;;;;9.07;8.23;;;;;;;;;;5077411;28;20025;-61
2021/07/16 14:02:36;;;;;;;9.48;8.60;;;;;;;;;;5079714;28;20085;-60
2021/07/16 14:05:01;;;;;;;8.90;8.00;;;;;;;;;;5077730;28;20023;-59
2021/07/16 14:07:27;;;;;;;7.30;6.70;;;;;;;;;;5080812;28;20017;-61
2021/07/16 14:09:52;;;;;;;7.43;6.73;;;;;;;;;;5080494;28;20052;-62
2021/07/16 14:12:17;;;;;;;7.63;6.93;;;;;;;;;;5079295;28;20115;-61
2021/07/16 14:14:47;;;;;;;7.43;6.72;;;;;;;;;;5077866;28;20479;-61
2021/07/16 14:17:12;;;;;;;6.43;5.65;;;;;;;;;;5080894;28;20114;-61
2021/07/16 14:19:38;;;;;;;5.87;5.37;;;;;;;;;;5078517;28;20463;-62
2021/07/16 14:22:03;;;;;;;5.50;4.97;;;;;;;;;;5082897;28;20471;-61
2021/07/16 14:24:28;;;;;;;5.67;5.23;;;;;;;;;;5084053;28;20357;-61
2021/07/16 14:26:53;;;;;;;6.23;4.77;;;;;;;;;;5085151;28;20073;-60
2021/07/16 14:29:19;;;;;;;4.20;3.90;;;;;;;;;;5083601;28;20050;-61
2021/07/16 14:31:45;;;;;;;5.10;3.75;;;;;;;;;;5086637;28;20016;-59
2021/07/16 14:34:10;;;;;;;4.18;3.78;;;;;;;;;;5083869;28;20039;-60
2021/07/16 14:36:35;;;;;;;4.47;4.03;;;;;;;;;;5082035;28;20028;-60
2021/07/16 14:39:00;;;;;;;3.40;3.10;;;;;;;;;;5086940;28;20028;-61
2021/07/16 14:41:26;;;;;;;4.67;3.40;;;;;;;;;;5083884;28;20286;-61